createdAt,value
2023-06-10T00:00:23.335Z,948.32
2023-06-10T00:02:50.030Z,948.25
2023-06-10T00:05:16.428Z,948.34
2023-06-10T00:07:42.853Z,948.33
2023-06-10T00:10:09.290Z,948.28
2023-06-10T00:12:35.697Z,948.25
2023-06-10T00:15:02.152Z,948.20
2023-06-10T00:17:28.694Z,948.17
2023-06-10T00:19:55.105Z,948.18
2023-06-10T00:22:21.516Z,948.17
2023-06-10T00:24:47.978Z,948.21
2023-06-10T00:27:14.522Z,948.19
2023-06-10T00:29:41.057Z,948.24
2023-06-10T00:32:07.640Z,948.21
2023-06-10T00:34:34.017Z,948.26
2023-06-10T00:37:00.445Z,948.30
2023-06-10T00:39:26.880Z,948.29
2023-06-10T00:41:53.422Z,948.28
2023-06-10T00:44:19.960Z,948.33
2023-06-10T00:46:46.382Z,948.28
2023-06-10T00:49:12.832Z,948.26
2023-06-10T00:51:39.244Z,948.25
2023-06-10T00:54:05.700Z,948.25
2023-06-10T00:56:32.214Z,948.26
2023-06-10T00:58:58.768Z,948.26
2023-06-10T01:01:25.251Z,948.34
2023-06-10T01:03:51.616Z,948.41
2023-06-10T01:06:18.047Z,948.36
2023-06-10T01:08:44.486Z,948.41
2023-06-10T01:11:11.035Z,948.44
2023-06-10T01:13:37.450Z,948.38
2023-06-10T01:16:03.890Z,948.39
2023-06-10T01:18:30.289Z,948.37
2023-06-10T01:20:56.749Z,948.40
2023-06-10T01:23:23.545Z,948.42
2023-06-10T01:25:50.035Z,948.31
2023-06-10T01:28:16.576Z,948.41
2023-06-10T01:30:43.111Z,948.26
2023-06-10T01:33:09.838Z,948.29
2023-06-10T01:35:36.166Z,948.34
2023-06-10T01:38:02.733Z,948.36
2023-06-10T01:40:29.266Z,948.27
2023-06-10T01:42:55.792Z,948.36
2023-06-10T01:45:22.324Z,948.29
2023-06-10T01:47:48.922Z,948.32
2023-06-10T01:50:15.385Z,948.25
2023-06-10T01:52:41.841Z,948.23
2023-06-10T01:55:08.559Z,948.16
2023-06-10T01:57:34.785Z,948.16
2023-06-10T02:00:01.223Z,948.12
2023-06-10T02:02:27.792Z,948.13
2023-06-10T02:04:54.311Z,948.13
2023-06-10T02:07:20.842Z,948.13
2023-06-10T02:09:47.377Z,948.14
2023-06-10T02:12:15.809Z,948.14
2023-06-10T02:14:40.246Z,948.23
2023-06-10T02:17:06.773Z,948.15
2023-06-10T02:19:33.205Z,948.20
2023-06-10T02:21:59.628Z,948.12
2023-06-10T02:24:26.176Z,948.08
2023-06-10T02:26:52.654Z,948.06
2023-06-10T02:29:19.262Z,948.01
2023-06-10T02:31:45.811Z,947.98
2023-06-10T02:34:12.279Z,947.93
2023-06-10T02:36:38.625Z,947.94
2023-06-10T02:39:05.187Z,947.98
2023-06-10T02:41:31.701Z,947.99
2023-06-10T02:43:58.138Z,947.91
2023-06-10T02:46:24.816Z,947.95
2023-06-10T02:48:51.108Z,947.87
2023-06-10T02:51:17.510Z,947.80
2023-06-10T02:53:43.988Z,947.87
2023-06-10T02:56:10.529Z,947.82
2023-06-10T02:58:36.983Z,947.86
2023-06-10T03:01:03.499Z,947.85
2023-06-10T03:03:29.932Z,947.89
2023-06-10T03:05:56.358Z,947.90
2023-06-10T03:08:22.921Z,947.87
2023-06-10T03:10:49.345Z,947.93
2023-06-10T03:13:15.800Z,947.98
2023-06-10T03:15:42.370Z,948.01
2023-06-10T03:18:08.873Z,947.94
2023-06-10T03:20:35.319Z,948.00
2023-06-10T03:23:01.795Z,948.03
2023-06-10T03:25:28.343Z,948.04
2023-06-10T03:27:54.876Z,948.17
2023-06-10T03:30:21.408Z,948.20
2023-06-10T03:32:47.870Z,948.24
2023-06-10T03:35:14.259Z,948.23
2023-06-10T03:37:40.808Z,948.25
2023-06-10T03:40:07.274Z,948.25
2023-06-10T03:42:33.677Z,948.26
2023-06-10T03:45:00.172Z,948.23
2023-06-10T03:47:26.614Z,948.20
2023-06-10T03:49:53.064Z,948.18
2023-06-10T03:52:19.573Z,948.21
2023-06-10T03:54:46.042Z,948.18
2023-06-10T03:57:12.465Z,948.21
2023-06-10T03:59:39.013Z,948.13
2023-06-10T04:02:05.592Z,948.19
2023-06-10T04:04:31.966Z,948.11
2023-06-10T04:06:58.523Z,948.14
2023-06-10T04:09:24.948Z,948.19
2023-06-10T04:11:51.355Z,948.24
2023-06-10T04:14:17.914Z,948.27
2023-06-10T04:16:44.462Z,948.28
2023-06-10T04:19:10.882Z,948.26
2023-06-10T04:21:37.341Z,948.25
2023-06-10T04:24:03.928Z,948.27
2023-06-10T04:26:30.391Z,948.29
2023-06-10T04:28:56.914Z,948.27
2023-06-10T04:31:23.392Z,948.33
2023-06-10T04:33:49.796Z,948.30
2023-06-10T04:36:16.317Z,948.24
2023-06-10T04:38:42.864Z,948.27
2023-06-10T04:41:09.287Z,948.29
2023-06-10T04:43:35.761Z,948.29
2023-06-10T04:46:02.276Z,948.26
2023-06-10T04:48:28.800Z,948.30
2023-06-10T04:50:55.259Z,948.30
2023-06-10T04:53:21.753Z,948.23
2023-06-10T04:55:48.191Z,948.23
2023-06-10T04:58:14.639Z,948.27
2023-06-10T05:00:41.170Z,948.30
2023-06-10T05:03:07.840Z,948.30
2023-06-10T05:05:34.123Z,948.17
2023-06-10T05:08:00.726Z,948.25
2023-06-10T05:10:27.212Z,948.22
2023-06-10T05:12:53.603Z,948.27
2023-06-10T05:15:20.056Z,948.22
2023-06-10T05:17:46.510Z,948.25
2023-06-10T05:20:13.137Z,948.25
2023-06-10T05:22:39.623Z,948.22
2023-06-10T05:25:06.175Z,948.21
2023-06-10T05:27:32.551Z,948.21
2023-06-10T05:29:59.266Z,948.27
2023-06-10T05:32:25.680Z,948.23
2023-06-10T05:34:52.256Z,948.26
2023-06-10T05:37:18.705Z,948.24
2023-06-10T05:39:45.275Z,948.25
2023-06-10T05:42:11.783Z,948.27
2023-06-10T05:44:38.166Z,948.30
2023-06-10T05:47:04.614Z,948.30
2023-06-10T05:49:31.311Z,948.28
2023-06-10T05:51:57.744Z,948.33
2023-06-10T05:54:24.251Z,948.33
2023-06-10T05:56:50.634Z,948.37
2023-06-10T05:59:18.622Z,948.39
2023-06-10T06:01:45.207Z,948.40
2023-06-10T06:04:11.738Z,948.43
2023-06-10T06:06:38.365Z,948.42
2023-06-10T06:09:04.909Z,948.45
2023-06-10T06:11:31.412Z,948.48
2023-06-10T06:13:57.886Z,948.36
2023-06-10T06:16:24.622Z,948.37
2023-06-10T06:18:51.035Z,948.35
2023-06-10T06:21:17.478Z,948.36
2023-06-10T06:23:43.971Z,948.37
2023-06-10T06:26:10.618Z,948.40
2023-06-10T06:28:37.148Z,948.43
2023-06-10T06:31:03.610Z,948.42
2023-06-10T06:33:30.121Z,948.44
2023-06-10T06:35:56.868Z,948.42
2023-06-10T06:38:23.291Z,948.38
2023-06-10T06:40:49.742Z,948.36
2023-06-10T06:43:16.287Z,948.36
2023-06-10T06:45:43.836Z,948.28
2023-06-10T06:48:10.374Z,948.28
2023-06-10T06:50:36.806Z,948.26
2023-06-10T06:53:03.325Z,948.24
2023-06-10T06:55:29.657Z,948.20
2023-06-10T06:57:56.190Z,948.19
2023-06-10T07:00:22.860Z,948.27
2023-06-10T07:02:49.444Z,948.23
2023-06-10T07:05:16.010Z,948.22
2023-06-10T07:07:42.363Z,948.23
2023-06-10T07:10:08.882Z,948.20
2023-06-10T07:12:35.611Z,948.24
2023-06-10T07:15:02.040Z,948.23
2023-06-10T07:17:28.695Z,948.19
2023-06-10T07:19:55.041Z,948.18
2023-06-10T07:22:21.649Z,948.20
2023-06-10T07:24:48.244Z,948.12
2023-06-10T07:27:14.717Z,948.12
2023-06-10T07:29:41.165Z,948.12
2023-06-10T07:32:07.888Z,948.16
2023-06-10T07:34:34.439Z,948.12
2023-06-10T07:37:00.884Z,948.13
2023-06-10T07:39:27.343Z,948.13
2023-06-10T07:41:53.889Z,948.18
2023-06-10T07:44:20.320Z,948.08
2023-06-10T07:46:46.849Z,948.09
2023-06-10T07:49:13.300Z,948.07
2023-06-10T07:51:39.800Z,948.10
2023-06-10T07:54:06.314Z,948.09
2023-06-10T07:56:32.726Z,948.10
2023-06-10T07:58:59.130Z,948.10
2023-06-10T08:01:27.931Z,948.12
2023-06-10T08:03:54.500Z,948.15
2023-06-10T08:06:21.032Z,948.08
2023-06-10T08:08:47.448Z,948.08
2023-06-10T08:11:13.906Z,948.03
2023-06-10T08:13:40.442Z,948.05
2023-06-10T08:16:06.997Z,948.05
2023-06-10T08:18:33.496Z,947.96
2023-06-10T08:21:00.046Z,947.98
2023-06-10T08:23:26.582Z,947.91
2023-06-10T08:25:55.101Z,947.91
2023-06-10T08:28:21.579Z,947.88
2023-06-10T08:30:48.075Z,947.92
2023-06-10T08:33:14.792Z,947.82
2023-06-10T08:35:41.185Z,947.81
2023-06-10T08:38:07.635Z,947.81
2023-06-10T08:40:34.055Z,947.76
2023-06-10T08:43:00.799Z,947.81
2023-06-10T08:45:27.266Z,947.67
2023-06-10T08:47:53.792Z,947.65
2023-06-10T08:50:20.213Z,947.66
2023-06-10T08:52:47.740Z,947.66
2023-06-10T08:55:14.210Z,947.65
2023-06-10T08:57:40.639Z,947.57
2023-06-10T09:00:07.579Z,947.56
2023-06-10T09:02:33.909Z,947.61
2023-06-10T09:05:00.455Z,947.52
2023-06-10T09:07:27.341Z,947.53
2023-06-10T09:09:53.788Z,947.50
2023-06-10T09:12:20.245Z,947.51
2023-06-10T09:14:49.066Z,947.56
2023-06-10T09:17:15.503Z,947.51
2023-06-10T09:19:42.121Z,947.54
2023-06-10T09:22:08.693Z,947.41
2023-06-10T09:24:36.329Z,947.48
2023-06-10T09:27:02.803Z,947.42
2023-06-10T09:29:29.289Z,947.43
2023-06-10T09:31:55.805Z,947.52
2023-06-10T09:34:22.391Z,947.50
2023-06-10T09:36:48.888Z,947.51
2023-06-10T09:39:16.533Z,947.43
2023-06-10T09:41:41.900Z,947.42
2023-06-10T09:44:10.108Z,947.40
2023-06-10T09:46:35.077Z,947.27
2023-06-10T09:49:01.559Z,947.25
2023-06-10T09:51:28.457Z,947.26
2023-06-10T09:53:55.155Z,947.14
2023-06-10T09:56:21.687Z,947.16
2023-06-10T09:58:48.165Z,947.14
2023-06-10T10:01:14.689Z,947.09
2023-06-10T10:03:41.252Z,947.06
2023-06-10T10:06:07.772Z,947.03
2023-06-10T10:08:34.227Z,947.01
2023-06-10T10:11:00.701Z,947.01
2023-06-10T10:13:27.125Z,946.99
2023-06-10T10:15:53.620Z,946.98
2023-06-10T10:18:20.150Z,947.01
2023-06-10T10:20:46.507Z,946.92
2023-06-10T10:23:13.004Z,946.93
2023-06-10T10:25:39.566Z,946.92
2023-06-10T10:28:06.238Z,946.91
2023-06-10T10:30:32.661Z,946.92
2023-06-10T10:32:59.272Z,946.88
2023-06-10T10:35:25.527Z,946.87
2023-06-10T10:37:53.107Z,946.92
2023-06-10T10:40:19.769Z,946.83
2023-06-10T10:42:46.174Z,946.86
2023-06-10T10:45:13.038Z,946.82
2023-06-10T10:47:39.258Z,946.77
2023-06-10T10:50:06.049Z,946.72
2023-06-10T10:52:32.515Z,946.61
2023-06-10T10:54:58.957Z,946.63
2023-06-10T10:57:25.501Z,946.66
2023-06-10T10:59:51.890Z,946.65
2023-06-10T11:02:18.438Z,946.64
2023-06-10T11:04:44.933Z,946.57
2023-06-10T11:07:11.324Z,946.64
2023-06-10T11:09:38.826Z,946.58
2023-06-10T11:12:05.312Z,946.42
2023-06-10T11:14:31.872Z,946.44
2023-06-10T11:16:58.345Z,946.37
2023-06-10T11:19:24.750Z,946.36
2023-06-10T11:21:51.331Z,946.31
2023-06-10T11:24:17.919Z,946.32
2023-06-10T11:26:44.318Z,946.28
2023-06-10T11:29:10.920Z,946.34
2023-06-10T11:31:37.430Z,946.21
2023-06-10T11:34:03.709Z,946.21
2023-06-10T11:36:30.277Z,946.17
2023-06-10T11:38:56.782Z,946.11
2023-06-10T11:41:23.190Z,946.10
2023-06-10T11:43:49.678Z,946.16
2023-06-10T11:46:16.175Z,946.07
2023-06-10T11:48:42.729Z,946.12
2023-06-10T11:51:09.283Z,946.14
2023-06-10T11:53:35.808Z,946.05
2023-06-10T11:56:02.241Z,946.06
2023-06-10T11:58:28.728Z,946.02
2023-06-10T12:00:55.209Z,946.03
2023-06-10T12:03:21.837Z,946.01
2023-06-10T12:05:48.213Z,945.96
2023-06-10T12:08:14.624Z,945.95
2023-06-10T12:10:41.071Z,945.95
2023-06-10T12:13:07.578Z,945.91
2023-06-10T12:15:34.004Z,945.92
2023-06-10T12:18:00.754Z,945.89
2023-06-10T12:20:27.082Z,945.91
2023-06-10T12:22:53.610Z,945.91
2023-06-10T12:25:20.061Z,945.91
2023-06-10T12:27:46.486Z,945.87
2023-06-10T12:30:13.006Z,945.91
2023-06-10T12:32:39.521Z,945.84
2023-06-10T12:35:06.028Z,945.81
2023-06-10T12:37:32.447Z,945.77
2023-06-10T12:39:58.943Z,945.77
2023-06-10T12:42:25.485Z,945.74
2023-06-10T12:44:51.969Z,945.68
2023-06-10T12:47:18.419Z,945.66
2023-06-10T12:49:44.871Z,945.65
2023-06-10T12:52:11.349Z,945.70
2023-06-10T12:54:38.212Z,945.67
2023-06-10T12:57:04.637Z,945.73
2023-06-10T12:59:31.111Z,945.66
2023-06-10T13:01:57.565Z,945.82
2023-06-10T13:04:24.136Z,945.81
2023-06-10T13:06:50.638Z,945.72
2023-06-10T13:09:17.080Z,945.79
2023-06-10T13:11:43.762Z,945.78
2023-06-10T13:14:10.347Z,945.80
2023-06-10T13:16:36.931Z,945.81
2023-06-10T13:19:03.332Z,945.86
2023-06-10T13:21:29.765Z,945.89
2023-06-10T13:23:56.353Z,945.94
2023-06-10T13:26:22.712Z,946.05
2023-06-10T13:28:49.163Z,946.05
2023-06-10T13:31:16.699Z,945.93
2023-06-10T13:33:43.146Z,945.99
2023-06-10T13:36:09.610Z,945.91
2023-06-10T13:38:36.521Z,946.01
2023-06-10T13:41:04.924Z,945.93
2023-06-10T13:43:29.443Z,945.97
2023-06-10T13:45:55.869Z,945.93
2023-06-10T13:48:22.766Z,945.97
2023-06-10T13:50:49.225Z,945.96
2023-06-10T13:53:15.748Z,945.94
2023-06-10T13:55:42.251Z,945.98
2023-06-10T13:58:09.854Z,945.99
2023-06-10T14:00:36.356Z,945.97
2023-06-10T14:03:02.829Z,945.92
2023-06-10T14:05:32.408Z,946.02
2023-06-10T14:07:58.631Z,946.07
2023-06-10T14:10:25.046Z,946.13
2023-06-10T14:12:51.597Z,946.20
2023-06-10T14:15:18.143Z,946.23
2023-06-10T14:17:44.688Z,946.22
2023-06-10T14:20:11.295Z,946.30
2023-06-10T14:22:37.853Z,946.33
2023-06-10T14:25:04.307Z,946.36
2023-06-10T14:27:30.818Z,946.32
2023-06-10T14:29:57.675Z,946.42
2023-06-10T14:32:24.148Z,946.39
2023-06-10T14:34:50.614Z,946.36
2023-06-10T14:37:17.157Z,946.34
2023-06-10T14:39:45.904Z,946.36
2023-06-10T14:42:12.488Z,946.31
2023-06-10T14:44:40.058Z,946.29
2023-06-10T14:47:06.582Z,946.23
2023-06-10T14:49:33.015Z,946.19
2023-06-10T14:51:59.735Z,946.02
2023-06-10T14:54:26.383Z,946.05
2023-06-10T14:56:52.827Z,946.11
2023-06-10T14:59:19.353Z,946.06
2023-06-10T15:01:46.142Z,946.04
2023-06-10T15:04:12.749Z,945.95
2023-06-10T15:06:39.049Z,945.94
2023-06-10T15:09:05.496Z,945.98
2023-06-10T15:11:31.930Z,945.97
2023-06-10T15:13:58.390Z,945.98
2023-06-10T15:16:25.063Z,945.93
2023-06-10T15:18:51.479Z,945.94
2023-06-10T15:21:17.977Z,945.96
2023-06-10T15:23:44.618Z,945.99
2023-06-10T15:26:11.050Z,945.90
2023-06-10T15:28:37.495Z,945.92
2023-06-10T15:31:04.105Z,945.88
2023-06-10T15:33:30.563Z,945.87
2023-06-10T15:35:57.154Z,945.85
2023-06-10T15:38:23.530Z,945.90
2023-06-10T15:40:50.097Z,945.93
2023-06-10T15:43:16.581Z,945.96
2023-06-10T15:45:43.399Z,946.02
2023-06-10T15:48:09.782Z,945.99
2023-06-10T15:50:36.314Z,946.04
2023-06-10T15:53:02.727Z,946.00
2023-06-10T15:55:29.154Z,946.04
2023-06-10T15:57:55.809Z,945.92
2023-06-10T16:00:24.342Z,946.10
2023-06-10T16:02:51.010Z,946.10
2023-06-10T16:05:17.241Z,946.16
2023-06-10T16:07:44.006Z,946.12
2023-06-10T16:10:10.520Z,946.14
2023-06-10T16:12:37.068Z,946.11
2023-06-10T16:15:03.495Z,946.11
2023-06-10T16:17:30.137Z,946.22
2023-06-10T16:19:56.676Z,946.22
2023-06-10T16:22:23.042Z,946.19
2023-06-10T16:24:49.525Z,946.21
2023-06-10T16:27:16.274Z,946.25
2023-06-10T16:29:42.822Z,946.19
2023-06-10T16:32:09.308Z,946.27
2023-06-10T16:34:35.985Z,946.22
2023-06-10T16:37:02.635Z,946.22
2023-06-10T16:39:29.158Z,946.22
2023-06-10T16:41:55.695Z,946.20
2023-06-10T16:44:22.112Z,946.21
2023-06-10T16:46:48.610Z,946.31
2023-06-10T16:49:15.397Z,946.31
2023-06-10T16:51:41.860Z,946.33
2023-06-10T16:54:08.341Z,946.35
2023-06-10T16:56:34.744Z,946.42
2023-06-10T16:59:01.238Z,946.42
2023-06-10T17:01:27.696Z,946.47
2023-06-10T17:03:54.106Z,946.46
2023-06-10T17:06:20.642Z,946.51
2023-06-10T17:08:47.071Z,946.54
2023-06-10T17:11:13.492Z,946.55
2023-06-10T17:13:41.975Z,946.52
2023-06-10T17:16:09.893Z,946.56
2023-06-10T17:18:36.618Z,946.69
2023-06-10T17:21:03.126Z,946.76
2023-06-10T17:23:29.648Z,946.77
2023-06-10T17:25:56.196Z,946.70
2023-06-10T17:28:22.676Z,946.78
2023-06-10T17:30:49.088Z,946.73
2023-06-10T17:33:15.598Z,946.78
2023-06-10T17:35:42.129Z,946.78
2023-06-10T17:38:09.049Z,946.82
2023-06-10T17:40:36.484Z,946.80
2023-06-10T17:43:02.915Z,946.78
2023-06-10T17:45:29.349Z,946.76
2023-06-10T17:47:55.761Z,946.80
2023-06-10T17:50:22.215Z,946.81
2023-06-10T17:52:48.706Z,946.82
2023-06-10T17:55:15.109Z,946.84
2023-06-10T17:57:41.581Z,946.84
2023-06-10T18:00:08.296Z,946.80
2023-06-10T18:02:34.796Z,946.78
2023-06-10T18:05:01.184Z,946.77
2023-06-10T18:07:27.716Z,946.75
2023-06-10T18:09:54.152Z,946.74
2023-06-10T18:12:20.688Z,946.70
2023-06-10T18:14:47.218Z,946.70
2023-06-10T18:17:13.789Z,946.68
2023-06-10T18:19:40.247Z,946.74
2023-06-10T18:22:06.727Z,946.72
2023-06-10T18:24:33.251Z,946.74
2023-06-10T18:26:59.910Z,946.82
2023-06-10T18:29:26.320Z,946.94
2023-06-10T18:31:52.914Z,946.90
2023-06-10T18:34:19.332Z,946.97
2023-06-10T18:36:46.217Z,946.95
2023-06-10T18:39:12.606Z,946.99
2023-06-10T18:41:39.205Z,947.03
2023-06-10T18:44:05.744Z,947.05
2023-06-10T18:46:32.295Z,947.01
2023-06-10T18:48:58.649Z,947.04
2023-06-10T18:51:25.098Z,947.02
2023-06-10T18:53:51.565Z,947.02
2023-06-10T18:56:18.179Z,947.07
2023-06-10T18:58:44.714Z,947.10
2023-06-10T19:01:11.160Z,947.06
2023-06-10T19:03:37.617Z,947.12
2023-06-10T19:06:04.049Z,947.15
2023-06-10T19:08:30.586Z,947.17
2023-06-10T19:10:57.008Z,947.14
2023-06-10T19:13:23.628Z,947.20
2023-06-10T19:15:49.977Z,947.19
2023-06-10T19:18:17.038Z,947.16
2023-06-10T19:20:43.487Z,947.20
2023-06-10T19:23:09.994Z,947.17
2023-06-10T19:25:36.440Z,947.21
2023-06-10T19:28:02.933Z,947.21
2023-06-10T19:30:29.364Z,947.20
2023-06-10T19:32:55.904Z,947.25
2023-06-10T19:35:22.265Z,947.26
2023-06-10T19:37:49.525Z,947.21
2023-06-10T19:40:15.947Z,947.28
2023-06-10T19:42:42.410Z,947.27
2023-06-10T19:45:09.145Z,947.27
2023-06-10T19:47:35.817Z,947.33
2023-06-10T19:50:02.210Z,947.35
2023-06-10T19:52:28.747Z,947.35
2023-06-10T19:54:55.274Z,947.30
2023-06-10T19:57:21.801Z,947.34
2023-06-10T19:59:48.344Z,947.29
2023-06-10T20:02:14.862Z,947.33
2023-06-10T20:04:41.208Z,947.33
2023-06-10T20:07:07.896Z,947.32
2023-06-10T20:09:34.427Z,947.32
2023-06-10T20:12:02.904Z,947.34
2023-06-10T20:14:27.358Z,947.27
2023-06-10T20:16:53.875Z,947.32
2023-06-10T20:19:20.309Z,947.30
2023-06-10T20:21:46.850Z,947.25
2023-06-10T20:24:13.383Z,947.27
2023-06-10T20:26:39.725Z,947.31
2023-06-10T20:29:06.155Z,947.23
2023-06-10T20:31:32.628Z,947.30
2023-06-10T20:33:59.141Z,947.26
2023-06-10T20:36:27.265Z,947.24
2023-06-10T20:38:53.135Z,947.24
2023-06-10T20:41:19.634Z,947.21
2023-06-10T20:43:46.063Z,947.21
2023-06-10T20:46:12.511Z,947.20
2023-06-10T20:48:39.049Z,947.23
2023-06-10T20:51:05.574Z,947.23
2023-06-10T20:53:31.999Z,947.24
2023-06-10T20:55:58.427Z,947.24
2023-06-10T20:58:24.921Z,947.28
2023-06-10T21:00:51.405Z,947.30
2023-06-10T21:03:18.145Z,947.23
2023-06-10T21:05:44.586Z,947.22
2023-06-10T21:08:11.005Z,947.27
2023-06-10T21:10:37.464Z,947.28
2023-06-10T21:13:03.946Z,947.32
2023-06-10T21:15:30.412Z,947.29
2023-06-10T21:17:56.977Z,947.20
2023-06-10T21:20:23.421Z,947.27
2023-06-10T21:22:49.826Z,947.29
2023-06-10T21:25:16.255Z,947.24
2023-06-10T21:27:42.793Z,947.18
2023-06-10T21:30:09.251Z,947.22
2023-06-10T21:32:35.756Z,947.20
2023-06-10T21:35:02.216Z,947.21
2023-06-10T21:37:29.686Z,947.12
2023-06-10T21:39:56.137Z,947.15
2023-06-10T21:42:22.539Z,947.04
2023-06-10T21:44:49.032Z,947.09
2023-06-10T21:47:15.480Z,947.00
2023-06-10T21:49:41.921Z,946.98
2023-06-10T21:52:08.339Z,946.92
2023-06-10T21:54:34.864Z,946.93
2023-06-10T21:57:01.416Z,946.99
2023-06-10T21:59:28.008Z,946.90
2023-06-10T22:01:54.521Z,946.87
2023-06-10T22:04:21.007Z,946.90
2023-06-10T22:06:47.472Z,946.92
2023-06-10T22:09:14.002Z,946.89
2023-06-10T22:11:40.526Z,946.93
2023-06-10T22:14:07.092Z,946.90
2023-06-10T22:16:33.516Z,946.91
2023-06-10T22:19:00.040Z,946.90
2023-06-10T22:21:26.576Z,946.85
2023-06-10T22:23:53.155Z,946.83
2023-06-10T22:26:19.650Z,946.82
2023-06-10T22:28:46.068Z,946.88
2023-06-10T22:31:12.571Z,946.87
2023-06-10T22:33:38.947Z,946.83
2023-06-10T22:36:05.502Z,946.89
2023-06-10T22:38:32.021Z,946.91
2023-06-10T22:40:58.427Z,946.80
2023-06-10T22:43:24.844Z,946.90
2023-06-10T22:45:51.493Z,946.86
2023-06-10T22:48:18.039Z,946.86
2023-06-10T22:50:44.376Z,946.77
2023-06-10T22:53:10.926Z,946.86
2023-06-10T22:55:37.344Z,946.84
2023-06-10T22:58:03.751Z,946.85
2023-06-10T23:00:30.218Z,946.81
2023-06-10T23:02:56.767Z,946.82
2023-06-10T23:05:23.319Z,946.83
2023-06-10T23:07:49.706Z,946.82
2023-06-10T23:10:16.179Z,946.83
2023-06-10T23:12:42.703Z,946.72
2023-06-10T23:15:09.489Z,946.75
2023-06-10T23:17:35.848Z,946.72
2023-06-10T23:20:02.194Z,946.67
2023-06-10T23:22:29.034Z,946.72
2023-06-10T23:24:55.494Z,946.71
2023-06-10T23:27:22.073Z,946.67
2023-06-10T23:29:58.579Z,946.68
2023-06-10T23:32:15.085Z,946.70
2023-06-10T23:34:41.508Z,946.66
2023-06-10T23:37:08.039Z,946.61
2023-06-10T23:39:34.601Z,946.60
2023-06-10T23:42:01.009Z,946.63
2023-06-10T23:44:27.516Z,946.58
2023-06-10T23:46:53.986Z,946.52
2023-06-10T23:49:20.526Z,946.50
2023-06-10T23:51:46.944Z,946.56
2023-06-10T23:54:13.391Z,946.58
2023-06-10T23:56:39.929Z,946.56
2023-06-10T23:59:06.446Z,946.54
